Main page
METAR-TAF:

METAR-TAF

Airports :

Sørkjosen Airport

Sørkjosen, Norway

latitude: 69-47N, longitude: 020-58E, elevation: 0 m

Current weather observation

The report was made 27 minutes ago, at 09:50 UTC
Wind 13 kt from the North/Northeast
Temperature 6°C
Humidity 70%
Pressure 1023 hPa
Visibility 10 km or more
Few clouds at a height of 2000 ft
Broken clouds at a height of 3500 ft

METAR: ENSR 220950Z 35011KT 9999 FEW020 BKN035 06/01 Q1023 WIND 1119FT 02013KT

Time: 12:17 (10:17 UTC)


TAF: missing

Weather observations and forecasts of more than 4000 airports (METAR and TAF reports).

The available stations are represented by yellow and red dots on the map.

Hover mouse over dot to see the name of the station.

Then click to see weather observations and forecasts.

To change the map : click on the green buttons with a black cross to zoom in, on the green button with a dash to zoom out, or on the green arrows for adjacent maps.


METAR-TAF: